sensor_id;sensor_type;location;lat;lon;timestamp;P1;durP1;ratioP1;P2;durP2;ratioP2
8626;SDS011;4351;51.422;6.794;2023-04-08T00:00:52;23.23;;;19.67;;
8626;SDS011;4351;51.422;6.794;2023-04-08T00:03:19;23.53;;;18.63;;
8626;SDS011;4351;51.422;6.794;2023-04-08T00:05:48;23.10;;;17.97;;
8626;SDS011;4351;51.422;6.794;2023-04-08T00:08:16;22.60;;;18.20;;
8626;SDS011;4351;51.422;6.794;2023-04-08T00:10:44;23.60;;;19.30;;
8626;SDS011;4351;51.422;6.794;2023-04-08T00:13:12;23.27;;;18.57;;
8626;SDS011;4351;51.422;6.794;2023-04-08T00:15:40;23.90;;;18.73;;
8626;SDS011;4351;51.422;6.794;2023-04-08T00:18:09;22.50;;;17.87;;
8626;SDS011;4351;51.422;6.794;2023-04-08T00:20:37;27.20;;;19.03;;
8626;SDS011;4351;51.422;6.794;2023-04-08T00:23:05;22.43;;;18.03;;
8626;SDS011;4351;51.422;6.794;2023-04-08T00:25:33;21.50;;;17.97;;
8626;SDS011;4351;51.422;6.794;2023-04-08T00:28:01;21.17;;;17.70;;
8626;SDS011;4351;51.422;6.794;2023-04-08T00:30:29;25.47;;;19.50;;
8626;SDS011;4351;51.422;6.794;2023-04-08T00:32:57;24.47;;;20.47;;
8626;SDS011;4351;51.422;6.794;2023-04-08T00:35:27;22.57;;;18.53;;
8626;SDS011;4351;51.422;6.794;2023-04-08T00:37:55;23.03;;;18.67;;
8626;SDS011;4351;51.422;6.794;2023-04-08T00:40:23;24.20;;;18.87;;
8626;SDS011;4351;51.422;6.794;2023-04-08T00:42:52;22.80;;;18.20;;
8626;SDS011;4351;51.422;6.794;2023-04-08T00:45:20;23.87;;;17.90;;
8626;SDS011;4351;51.422;6.794;2023-04-08T00:47:48;23.33;;;18.87;;
8626;SDS011;4351;51.422;6.794;2023-04-08T00:50:18;23.67;;;18.80;;
8626;SDS011;4351;51.422;6.794;2023-04-08T00:52:48;22.50;;;18.87;;
8626;SDS011;4351;51.422;6.794;2023-04-08T00:55:16;23.23;;;18.90;;
8626;SDS011;4351;51.422;6.794;2023-04-08T00:57:44;24.23;;;19.23;;
8626;SDS011;4351;51.422;6.794;2023-04-08T01:00:13;22.83;;;18.97;;
8626;SDS011;4351;51.422;6.794;2023-04-08T01:02:44;24.17;;;19.80;;
8626;SDS011;4351;51.422;6.794;2023-04-08T01:05:21;22.93;;;19.67;;
8626;SDS011;4351;51.422;6.794;2023-04-08T01:07:58;20.50;;;17.33;;
8626;SDS011;4351;51.422;6.794;2023-04-08T01:10:29;24.07;;;19.03;;
8626;SDS011;4351;51.422;6.794;2023-04-08T01:13:00;23.67;;;19.20;;
8626;SDS011;4351;51.422;6.794;2023-04-08T01:15:31;22.63;;;18.70;;
8626;SDS011;4351;51.422;6.794;2023-04-08T01:18:04;22.70;;;17.77;;
8626;SDS011;4351;51.422;6.794;2023-04-08T01:20:34;24.90;;;19.10;;
8626;SDS011;4351;51.422;6.794;2023-04-08T01:23:08;24.50;;;19.20;;
8626;SDS011;4351;51.422;6.794;2023-04-08T01:25:44;21.80;;;18.20;;
8626;SDS011;4351;51.422;6.794;2023-04-08T01:28:14;22.43;;;18.10;;
8626;SDS011;4351;51.422;6.794;2023-04-08T01:30:44;22.80;;;18.27;;
8626;SDS011;4351;51.422;6.794;2023-04-08T01:33:14;22.07;;;18.43;;
8626;SDS011;4351;51.422;6.794;2023-04-08T01:35:44;21.43;;;17.60;;
8626;SDS011;4351;51.422;6.794;2023-04-08T01:38:13;23.40;;;19.47;;
8626;SDS011;4351;51.422;6.794;2023-04-08T01:40:44;23.70;;;19.30;;
8626;SDS011;4351;51.422;6.794;2023-04-08T01:43:14;21.23;;;17.90;;
8626;SDS011;4351;51.422;6.794;2023-04-08T01:45:43;23.50;;;18.70;;
8626;SDS011;4351;51.422;6.794;2023-04-08T01:48:13;21.67;;;18.77;;
8626;SDS011;4351;51.422;6.794;2023-04-08T01:50:42;22.47;;;18.27;;
8626;SDS011;4351;51.422;6.794;2023-04-08T01:53:12;28.17;;;20.37;;
8626;SDS011;4351;51.422;6.794;2023-04-08T01:55:40;23.80;;;19.30;;
8626;SDS011;4351;51.422;6.794;2023-04-08T01:58:14;21.97;;;17.40;;
8626;SDS011;4351;51.422;6.794;2023-04-08T02:00:46;26.10;;;18.33;;
8626;SDS011;4351;51.422;6.794;2023-04-08T02:03:16;26.10;;;18.80;;
8626;SDS011;4351;51.422;6.794;2023-04-08T02:05:46;22.43;;;18.73;;
8626;SDS011;4351;51.422;6.794;2023-04-08T02:08:15;22.33;;;17.87;;
8626;SDS011;4351;51.422;6.794;2023-04-08T02:10:43;23.60;;;18.30;;
8626;SDS011;4351;51.422;6.794;2023-04-08T02:13:10;20.63;;;17.13;;
8626;SDS011;4351;51.422;6.794;2023-04-08T02:15:41;24.23;;;18.80;;
8626;SDS011;4351;51.422;6.794;2023-04-08T02:18:14;24.60;;;19.30;;
8626;SDS011;4351;51.422;6.794;2023-04-08T02:20:47;22.60;;;17.83;;
8626;SDS011;4351;51.422;6.794;2023-04-08T02:23:20;24.17;;;18.20;;
8626;SDS011;4351;51.422;6.794;2023-04-08T02:25:54;21.47;;;18.03;;
8626;SDS011;4351;51.422;6.794;2023-04-08T02:28:25;23.00;;;19.10;;
8626;SDS011;4351;51.422;6.794;2023-04-08T02:30:56;23.53;;;17.73;;
8626;SDS011;4351;51.422;6.794;2023-04-08T02:33:26;24.17;;;19.63;;
8626;SDS011;4351;51.422;6.794;2023-04-08T02:35:56;20.73;;;17.37;;
8626;SDS011;4351;51.422;6.794;2023-04-08T02:38:24;23.57;;;18.43;;
8626;SDS011;4351;51.422;6.794;2023-04-08T02:40:55;21.40;;;18.13;;
8626;SDS011;4351;51.422;6.794;2023-04-08T02:43:23;22.67;;;17.73;;
8626;SDS011;4351;51.422;6.794;2023-04-08T02:45:56;21.77;;;17.90;;
8626;SDS011;4351;51.422;6.794;2023-04-08T02:48:25;23.07;;;18.73;;
8626;SDS011;4351;51.422;6.794;2023-04-08T02:50:53;22.33;;;18.27;;
8626;SDS011;4351;51.422;6.794;2023-04-08T02:53:21;20.90;;;17.03;;
8626;SDS011;4351;51.422;6.794;2023-04-08T02:55:50;21.20;;;17.70;;
8626;SDS011;4351;51.422;6.794;2023-04-08T02:58:18;21.10;;;17.73;;
8626;SDS011;4351;51.422;6.794;2023-04-08T03:00:46;22.73;;;17.87;;
8626;SDS011;4351;51.422;6.794;2023-04-08T03:03:16;20.90;;;16.90;;
8626;SDS011;4351;51.422;6.794;2023-04-08T03:05:44;19.10;;;15.70;;
8626;SDS011;4351;51.422;6.794;2023-04-08T03:08:12;18.87;;;15.77;;
8626;SDS011;4351;51.422;6.794;2023-04-08T03:10:40;20.40;;;16.67;;
8626;SDS011;4351;51.422;6.794;2023-04-08T03:13:08;19.67;;;16.43;;
8626;SDS011;4351;51.422;6.794;2023-04-08T03:15:36;20.30;;;15.87;;
8626;SDS011;4351;51.422;6.794;2023-04-08T03:18:04;21.73;;;17.03;;
8626;SDS011;4351;51.422;6.794;2023-04-08T03:20:34;24.07;;;18.10;;
8626;SDS011;4351;51.422;6.794;2023-04-08T03:23:02;21.27;;;17.30;;
8626;SDS011;4351;51.422;6.794;2023-04-08T03:25:29;22.00;;;17.70;;
8626;SDS011;4351;51.422;6.794;2023-04-08T03:27:57;22.93;;;17.97;;
8626;SDS011;4351;51.422;6.794;2023-04-08T03:30:25;21.57;;;17.63;;
8626;SDS011;4351;51.422;6.794;2023-04-08T03:32:53;23.33;;;19.13;;
8626;SDS011;4351;51.422;6.794;2023-04-08T03:35:21;20.40;;;16.83;;
8626;SDS011;4351;51.422;6.794;2023-04-08T03:37:51;24.37;;;18.37;;
8626;SDS011;4351;51.422;6.794;2023-04-08T03:40:20;23.80;;;18.57;;
8626;SDS011;4351;51.422;6.794;2023-04-08T03:42:48;23.17;;;18.80;;
8626;SDS011;4351;51.422;6.794;2023-04-08T03:45:16;22.80;;;18.40;;
8626;SDS011;4351;51.422;6.794;2023-04-08T03:47:44;23.73;;;19.23;;
8626;SDS011;4351;51.422;6.794;2023-04-08T03:50:12;22.57;;;17.90;;
8626;SDS011;4351;51.422;6.794;2023-04-08T03:52:40;24.73;;;18.30;;
8626;SDS011;4351;51.422;6.794;2023-04-08T03:55:09;21.10;;;16.37;;
8626;SDS011;4351;51.422;6.794;2023-04-08T03:57:37;21.40;;;17.33;;
8626;SDS011;4351;51.422;6.794;2023-04-08T04:00:06;21.43;;;17.67;;
8626;SDS011;4351;51.422;6.794;2023-04-08T04:02:37;22.53;;;17.07;;
8626;SDS011;4351;51.422;6.794;2023-04-08T04:05:06;21.67;;;16.73;;
8626;SDS011;4351;51.422;6.794;2023-04-08T04:07:34;19.80;;;15.50;;
8626;SDS011;4351;51.422;6.794;2023-04-08T04:10:03;21.27;;;16.50;;
8626;SDS011;4351;51.422;6.794;2023-04-08T04:12:33;19.30;;;16.30;;
8626;SDS011;4351;51.422;6.794;2023-04-08T04:15:00;23.27;;;18.83;;
8626;SDS011;4351;51.422;6.794;2023-04-08T04:17:28;23.63;;;18.83;;
8626;SDS011;4351;51.422;6.794;2023-04-08T04:19:56;26.63;;;19.03;;
8626;SDS011;4351;51.422;6.794;2023-04-08T04:22:24;24.40;;;19.27;;
8626;SDS011;4351;51.422;6.794;2023-04-08T04:24:52;30.53;;;20.93;;
8626;SDS011;4351;51.422;6.794;2023-04-08T04:27:20;36.63;;;23.30;;
8626;SDS011;4351;51.422;6.794;2023-04-08T04:29:49;38.40;;;24.17;;
8626;SDS011;4351;51.422;6.794;2023-04-08T04:32:17;30.87;;;22.70;;
8626;SDS011;4351;51.422;6.794;2023-04-08T04:34:45;31.33;;;22.43;;
8626;SDS011;4351;51.422;6.794;2023-04-08T04:37:13;31.10;;;23.40;;
8626;SDS011;4351;51.422;6.794;2023-04-08T04:39:41;29.77;;;22.03;;
8626;SDS011;4351;51.422;6.794;2023-04-08T04:42:10;28.00;;;20.77;;
8626;SDS011;4351;51.422;6.794;2023-04-08T04:44:38;33.23;;;22.13;;
8626;SDS011;4351;51.422;6.794;2023-04-08T04:47:07;35.23;;;22.63;;
8626;SDS011;4351;51.422;6.794;2023-04-08T04:49:35;36.87;;;22.67;;
8626;SDS011;4351;51.422;6.794;2023-04-08T04:52:03;27.20;;;20.73;;
8626;SDS011;4351;51.422;6.794;2023-04-08T04:54:32;29.83;;;21.57;;
8626;SDS011;4351;51.422;6.794;2023-04-08T04:57:00;33.83;;;22.50;;
8626;SDS011;4351;51.422;6.794;2023-04-08T04:59:28;32.20;;;23.03;;
8626;SDS011;4351;51.422;6.794;2023-04-08T05:01:57;32.30;;;22.67;;
8626;SDS011;4351;51.422;6.794;2023-04-08T05:04:26;35.50;;;23.77;;
8626;SDS011;4351;51.422;6.794;2023-04-08T05:06:55;37.27;;;22.40;;
8626;SDS011;4351;51.422;6.794;2023-04-08T05:09:25;31.17;;;22.40;;
8626;SDS011;4351;51.422;6.794;2023-04-08T05:11:53;32.90;;;23.27;;
8626;SDS011;4351;51.422;6.794;2023-04-08T05:14:21;32.17;;;23.20;;
8626;SDS011;4351;51.422;6.794;2023-04-08T05:16:49;36.23;;;24.47;;
8626;SDS011;4351;51.422;6.794;2023-04-08T05:19:17;33.60;;;23.40;;
8626;SDS011;4351;51.422;6.794;2023-04-08T05:21:47;31.80;;;23.47;;
8626;SDS011;4351;51.422;6.794;2023-04-08T05:24:15;30.80;;;23.43;;
8626;SDS011;4351;51.422;6.794;2023-04-08T05:26:43;31.07;;;22.90;;
8626;SDS011;4351;51.422;6.794;2023-04-08T05:29:10;30.53;;;22.97;;
8626;SDS011;4351;51.422;6.794;2023-04-08T05:31:38;31.67;;;23.17;;
8626;SDS011;4351;51.422;6.794;2023-04-08T05:34:06;32.73;;;23.67;;
8626;SDS011;4351;51.422;6.794;2023-04-08T05:36:35;28.83;;;21.63;;
8626;SDS011;4351;51.422;6.794;2023-04-08T05:39:05;32.30;;;23.77;;
8626;SDS011;4351;51.422;6.794;2023-04-08T05:41:33;35.20;;;24.13;;
8626;SDS011;4351;51.422;6.794;2023-04-08T05:44:01;35.47;;;23.40;;
8626;SDS011;4351;51.422;6.794;2023-04-08T05:46:30;30.30;;;21.97;;
8626;SDS011;4351;51.422;6.794;2023-04-08T05:49:11;29.67;;;21.20;;
8626;SDS011;4351;51.422;6.794;2023-04-08T05:51:39;32.03;;;23.30;;
8626;SDS011;4351;51.422;6.794;2023-04-08T05:54:08;31.37;;;22.17;;
8626;SDS011;4351;51.422;6.794;2023-04-08T05:56:37;33.77;;;23.33;;
8626;SDS011;4351;51.422;6.794;2023-04-08T05:59:12;31.87;;;23.30;;
8626;SDS011;4351;51.422;6.794;2023-04-08T06:01:41;30.13;;;23.23;;
8626;SDS011;4351;51.422;6.794;2023-04-08T06:04:09;38.00;;;25.10;;
8626;SDS011;4351;51.422;6.794;2023-04-08T06:06:37;32.63;;;23.07;;
8626;SDS011;4351;51.422;6.794;2023-04-08T06:09:14;34.30;;;23.33;;
8626;SDS011;4351;51.422;6.794;2023-04-08T06:11:42;33.80;;;24.17;;
8626;SDS011;4351;51.422;6.794;2023-04-08T06:14:12;30.63;;;21.97;;
8626;SDS011;4351;51.422;6.794;2023-04-08T06:16:40;31.23;;;23.20;;
8626;SDS011;4351;51.422;6.794;2023-04-08T06:19:08;49.43;;;27.30;;
8626;SDS011;4351;51.422;6.794;2023-04-08T06:21:36;74.67;;;32.63;;
8626;SDS011;4351;51.422;6.794;2023-04-08T06:24:04;83.20;;;35.10;;
8626;SDS011;4351;51.422;6.794;2023-04-08T06:26:37;115.00;;;39.70;;
8626;SDS011;4351;51.422;6.794;2023-04-08T06:29:05;92.50;;;35.87;;
8626;SDS011;4351;51.422;6.794;2023-04-08T06:31:33;90.87;;;37.10;;
8626;SDS011;4351;51.422;6.794;2023-04-08T06:34:01;92.53;;;37.50;;
8626;SDS011;4351;51.422;6.794;2023-04-08T06:36:29;97.37;;;38.37;;
8626;SDS011;4351;51.422;6.794;2023-04-08T06:43:24;106.47;;;38.30;;
8626;SDS011;4351;51.422;6.794;2023-04-08T06:45:53;96.53;;;40.40;;
8626;SDS011;4351;51.422;6.794;2023-04-08T06:48:21;114.20;;;42.57;;
8626;SDS011;4351;51.422;6.794;2023-04-08T06:50:49;101.43;;;37.63;;
8626;SDS011;4351;51.422;6.794;2023-04-08T06:53:16;107.97;;;39.10;;
8626;SDS011;4351;51.422;6.794;2023-04-08T06:55:44;123.07;;;43.97;;
8626;SDS011;4351;51.422;6.794;2023-04-08T06:58:12;110.27;;;40.77;;
8626;SDS011;4351;51.422;6.794;2023-04-08T07:00:42;116.47;;;43.77;;
8626;SDS011;4351;51.422;6.794;2023-04-08T07:03:10;112.73;;;42.50;;
8626;SDS011;4351;51.422;6.794;2023-04-08T07:05:38;119.07;;;43.70;;
8626;SDS011;4351;51.422;6.794;2023-04-08T07:08:07;129.40;;;45.17;;
8626;SDS011;4351;51.422;6.794;2023-04-08T07:10:35;139.37;;;49.10;;
8626;SDS011;4351;51.422;6.794;2023-04-08T07:13:03;151.57;;;48.40;;
8626;SDS011;4351;51.422;6.794;2023-04-08T07:15:31;140.87;;;48.60;;
8626;SDS011;4351;51.422;6.794;2023-04-08T07:18:00;138.73;;;48.43;;
8626;SDS011;4351;51.422;6.794;2023-04-08T07:20:29;130.93;;;45.33;;
8626;SDS011;4351;51.422;6.794;2023-04-08T07:22:57;126.87;;;45.73;;
8626;SDS011;4351;51.422;6.794;2023-04-08T07:25:25;131.03;;;45.00;;
8626;SDS011;4351;51.422;6.794;2023-04-08T07:27:53;115.60;;;43.43;;
8626;SDS011;4351;51.422;6.794;2023-04-08T07:30:21;108.70;;;40.00;;
8626;SDS011;4351;51.422;6.794;2023-04-08T07:32:49;106.37;;;42.37;;
8626;SDS011;4351;51.422;6.794;2023-04-08T07:35:19;100.03;;;38.80;;
8626;SDS011;4351;51.422;6.794;2023-04-08T07:37:49;90.20;;;37.73;;
8626;SDS011;4351;51.422;6.794;2023-04-08T07:40:18;90.87;;;38.27;;
8626;SDS011;4351;51.422;6.794;2023-04-08T07:42:46;97.73;;;40.80;;
8626;SDS011;4351;51.422;6.794;2023-04-08T07:45:14;89.83;;;38.90;;
8626;SDS011;4351;51.422;6.794;2023-04-08T07:47:43;99.93;;;40.93;;
8626;SDS011;4351;51.422;6.794;2023-04-08T07:50:11;87.37;;;38.37;;
8626;SDS011;4351;51.422;6.794;2023-04-08T07:52:41;95.57;;;39.40;;
8626;SDS011;4351;51.422;6.794;2023-04-08T07:55:08;84.27;;;38.30;;
8626;SDS011;4351;51.422;6.794;2023-04-08T07:57:36;92.37;;;39.67;;
8626;SDS011;4351;51.422;6.794;2023-04-08T08:00:05;90.70;;;39.17;;
8626;SDS011;4351;51.422;6.794;2023-04-08T08:02:40;101.10;;;38.77;;
8626;SDS011;4351;51.422;6.794;2023-04-08T08:05:08;92.23;;;39.87;;
8626;SDS011;4351;51.422;6.794;2023-04-08T08:07:36;97.93;;;38.50;;
8626;SDS011;4351;51.422;6.794;2023-04-08T08:10:06;125.93;;;44.77;;
8626;SDS011;4351;51.422;6.794;2023-04-08T08:12:35;126.30;;;46.57;;
8626;SDS011;4351;51.422;6.794;2023-04-08T08:15:03;114.10;;;44.23;;
8626;SDS011;4351;51.422;6.794;2023-04-08T08:17:31;125.30;;;47.13;;
8626;SDS011;4351;51.422;6.794;2023-04-08T08:19:59;120.73;;;47.60;;
8626;SDS011;4351;51.422;6.794;2023-04-08T08:22:27;137.40;;;48.27;;
8626;SDS011;4351;51.422;6.794;2023-04-08T08:24:55;155.80;;;54.17;;
8626;SDS011;4351;51.422;6.794;2023-04-08T08:27:25;173.77;;;57.70;;
8626;SDS011;4351;51.422;6.794;2023-04-08T08:29:53;168.10;;;55.00;;
8626;SDS011;4351;51.422;6.794;2023-04-08T08:32:22;172.90;;;57.07;;
8626;SDS011;4351;51.422;6.794;2023-04-08T08:34:50;164.53;;;57.57;;
8626;SDS011;4351;51.422;6.794;2023-04-08T08:37:18;158.90;;;57.20;;
8626;SDS011;4351;51.422;6.794;2023-04-08T08:39:45;156.60;;;56.57;;
8626;SDS011;4351;51.422;6.794;2023-04-08T08:42:19;150.80;;;56.87;;
8626;SDS011;4351;51.422;6.794;2023-04-08T08:44:49;148.70;;;56.97;;
8626;SDS011;4351;51.422;6.794;2023-04-08T08:47:17;145.80;;;56.77;;
8626;SDS011;4351;51.422;6.794;2023-04-08T08:49:46;128.77;;;53.43;;
8626;SDS011;4351;51.422;6.794;2023-04-08T08:52:14;136.13;;;54.30;;
8626;SDS011;4351;51.422;6.794;2023-04-08T08:54:43;106.27;;;48.93;;
8626;SDS011;4351;51.422;6.794;2023-04-08T08:57:18;100.17;;;46.70;;
8626;SDS011;4351;51.422;6.794;2023-04-08T08:59:46;96.57;;;47.07;;
8626;SDS011;4351;51.422;6.794;2023-04-08T09:02:26;85.97;;;44.07;;
8626;SDS011;4351;51.422;6.794;2023-04-08T09:04:56;86.23;;;42.97;;
8626;SDS011;4351;51.422;6.794;2023-04-08T09:07:26;90.27;;;45.27;;
8626;SDS011;4351;51.422;6.794;2023-04-08T09:09:55;83.90;;;43.20;;
8626;SDS011;4351;51.422;6.794;2023-04-08T09:12:24;82.77;;;44.77;;
8626;SDS011;4351;51.422;6.794;2023-04-08T09:15:03;85.70;;;47.20;;
8626;SDS011;4351;51.422;6.794;2023-04-08T09:17:33;90.00;;;45.97;;
8626;SDS011;4351;51.422;6.794;2023-04-08T09:20:03;86.97;;;46.10;;
8626;SDS011;4351;51.422;6.794;2023-04-08T09:22:56;81.43;;;43.33;;
8626;SDS011;4351;51.422;6.794;2023-04-08T09:25:25;71.90;;;41.13;;
8626;SDS011;4351;51.422;6.794;2023-04-08T09:27:54;61.83;;;38.13;;
8626;SDS011;4351;51.422;6.794;2023-04-08T09:30:23;51.67;;;34.23;;
8626;SDS011;4351;51.422;6.794;2023-04-08T09:32:54;50.20;;;34.90;;
8626;SDS011;4351;51.422;6.794;2023-04-08T09:35:24;49.57;;;34.40;;
8626;SDS011;4351;51.422;6.794;2023-04-08T09:37:53;46.63;;;33.27;;
8626;SDS011;4351;51.422;6.794;2023-04-08T09:40:21;49.27;;;33.93;;
8626;SDS011;4351;51.422;6.794;2023-04-08T09:42:54;48.83;;;34.50;;
8626;SDS011;4351;51.422;6.794;2023-04-08T09:45:25;54.43;;;38.10;;
8626;SDS011;4351;51.422;6.794;2023-04-08T09:47:56;55.27;;;37.73;;
8626;SDS011;4351;51.422;6.794;2023-04-08T09:50:35;47.67;;;33.57;;
8626;SDS011;4351;51.422;6.794;2023-04-08T09:53:11;48.93;;;34.50;;
8626;SDS011;4351;51.422;6.794;2023-04-08T09:55:47;47.87;;;33.13;;
8626;SDS011;4351;51.422;6.794;2023-04-08T09:58:20;48.27;;;33.10;;
8626;SDS011;4351;51.422;6.794;2023-04-08T10:00:53;44.73;;;30.07;;
8626;SDS011;4351;51.422;6.794;2023-04-08T10:03:25;45.73;;;31.93;;
8626;SDS011;4351;51.422;6.794;2023-04-08T10:05:54;36.43;;;24.43;;
8626;SDS011;4351;51.422;6.794;2023-04-08T10:08:23;37.47;;;25.47;;
8626;SDS011;4351;51.422;6.794;2023-04-08T10:10:52;32.93;;;24.37;;
8626;SDS011;4351;51.422;6.794;2023-04-08T10:13:21;30.70;;;21.53;;
8626;SDS011;4351;51.422;6.794;2023-04-08T10:15:50;25.80;;;19.30;;
8626;SDS011;4351;51.422;6.794;2023-04-08T10:18:39;26.30;;;19.47;;
8626;SDS011;4351;51.422;6.794;2023-04-08T10:21:19;25.00;;;19.60;;
8626;SDS011;4351;51.422;6.794;2023-04-08T10:23:58;27.97;;;20.33;;
8626;SDS011;4351;51.422;6.794;2023-04-08T10:26:40;25.03;;;18.30;;
8626;SDS011;4351;51.422;6.794;2023-04-08T10:32:07;27.03;;;17.57;;
8626;SDS011;4351;51.422;6.794;2023-04-08T10:34:37;18.47;;;15.77;;
8626;SDS011;4351;51.422;6.794;2023-04-08T10:37:19;22.77;;;16.13;;
8626;SDS011;4351;51.422;6.794;2023-04-08T10:39:49;14.20;;;12.70;;
8626;SDS011;4351;51.422;6.794;2023-04-08T10:42:25;18.33;;;14.90;;
8626;SDS011;4351;51.422;6.794;2023-04-08T10:44:53;20.00;;;14.13;;
8626;SDS011;4351;51.422;6.794;2023-04-08T10:47:27;16.70;;;13.53;;
8626;SDS011;4351;51.422;6.794;2023-04-08T10:49:57;17.27;;;13.83;;
8626;SDS011;4351;51.422;6.794;2023-04-08T10:52:26;16.73;;;12.83;;
8626;SDS011;4351;51.422;6.794;2023-04-08T10:54:56;13.50;;;11.70;;
8626;SDS011;4351;51.422;6.794;2023-04-08T10:57:24;16.13;;;11.53;;
8626;SDS011;4351;51.422;6.794;2023-04-08T10:59:52;16.93;;;11.60;;
8626;SDS011;4351;51.422;6.794;2023-04-08T11:02:31;12.83;;;10.37;;
8626;SDS011;4351;51.422;6.794;2023-04-08T11:05:02;13.97;;;10.33;;
8626;SDS011;4351;51.422;6.794;2023-04-08T11:07:38;14.90;;;11.30;;
8626;SDS011;4351;51.422;6.794;2023-04-08T11:10:07;13.57;;;10.70;;
8626;SDS011;4351;51.422;6.794;2023-04-08T11:12:36;13.20;;;10.30;;
8626;SDS011;4351;51.422;6.794;2023-04-08T11:15:04;12.07;;;10.10;;
8626;SDS011;4351;51.422;6.794;2023-04-08T11:17:33;12.20;;;10.70;;
8626;SDS011;4351;51.422;6.794;2023-04-08T11:20:03;14.97;;;11.17;;
8626;SDS011;4351;51.422;6.794;2023-04-08T11:22:32;13.13;;;10.67;;
8626;SDS011;4351;51.422;6.794;2023-04-08T11:25:01;15.10;;;11.57;;
8626;SDS011;4351;51.422;6.794;2023-04-08T11:27:30;13.63;;;10.00;;
8626;SDS011;4351;51.422;6.794;2023-04-08T11:29:58;12.33;;;10.47;;
8626;SDS011;4351;51.422;6.794;2023-04-08T11:32:27;12.70;;;10.17;;
8626;SDS011;4351;51.422;6.794;2023-04-08T11:34:58;13.33;;;10.00;;
8626;SDS011;4351;51.422;6.794;2023-04-08T11:37:33;13.37;;;9.87;;
8626;SDS011;4351;51.422;6.794;2023-04-08T11:40:05;14.27;;;9.87;;
8626;SDS011;4351;51.422;6.794;2023-04-08T11:42:34;13.13;;;10.53;;
8626;SDS011;4351;51.422;6.794;2023-04-08T11:45:08;12.70;;;10.63;;
8626;SDS011;4351;51.422;6.794;2023-04-08T11:47:38;14.10;;;10.37;;
8626;SDS011;4351;51.422;6.794;2023-04-08T11:50:07;14.57;;;11.07;;
8626;SDS011;4351;51.422;6.794;2023-04-08T11:52:41;13.90;;;10.77;;
8626;SDS011;4351;51.422;6.794;2023-04-08T11:55:09;13.53;;;10.37;;
8626;SDS011;4351;51.422;6.794;2023-04-08T11:57:38;11.97;;;10.03;;
8626;SDS011;4351;51.422;6.794;2023-04-08T12:00:07;14.37;;;11.37;;
8626;SDS011;4351;51.422;6.794;2023-04-08T12:02:38;11.73;;;9.97;;
8626;SDS011;4351;51.422;6.794;2023-04-08T12:05:07;12.57;;;9.60;;
8626;SDS011;4351;51.422;6.794;2023-04-08T12:07:36;14.50;;;10.60;;
8626;SDS011;4351;51.422;6.794;2023-04-08T12:10:06;14.53;;;10.27;;
8626;SDS011;4351;51.422;6.794;2023-04-08T12:12:35;13.57;;;9.80;;
8626;SDS011;4351;51.422;6.794;2023-04-08T12:15:03;14.30;;;11.23;;
8626;SDS011;4351;51.422;6.794;2023-04-08T12:17:32;11.77;;;9.70;;
8626;SDS011;4351;51.422;6.794;2023-04-08T12:20:10;12.23;;;9.97;;
8626;SDS011;4351;51.422;6.794;2023-04-08T12:22:39;14.00;;;10.13;;
8626;SDS011;4351;51.422;6.794;2023-04-08T12:25:07;13.27;;;11.03;;
8626;SDS011;4351;51.422;6.794;2023-04-08T12:27:35;14.20;;;10.47;;
8626;SDS011;4351;51.422;6.794;2023-04-08T12:30:03;12.23;;;9.83;;
8626;SDS011;4351;51.422;6.794;2023-04-08T12:32:38;11.50;;;9.07;;
8626;SDS011;4351;51.422;6.794;2023-04-08T12:35:06;12.53;;;10.43;;
8626;SDS011;4351;51.422;6.794;2023-04-08T12:37:36;11.30;;;9.27;;
8626;SDS011;4351;51.422;6.794;2023-04-08T12:40:04;11.07;;;9.67;;
8626;SDS011;4351;51.422;6.794;2023-04-08T12:42:33;13.60;;;10.00;;
8626;SDS011;4351;51.422;6.794;2023-04-08T12:45:01;11.57;;;9.07;;
8626;SDS011;4351;51.422;6.794;2023-04-08T12:47:29;11.63;;;9.30;;
8626;SDS011;4351;51.422;6.794;2023-04-08T12:49:58;12.97;;;9.03;;
8626;SDS011;4351;51.422;6.794;2023-04-08T12:52:27;9.43;;;7.67;;
8626;SDS011;4351;51.422;6.794;2023-04-08T12:54:56;9.00;;;7.13;;
8626;SDS011;4351;51.422;6.794;2023-04-08T12:57:24;10.17;;;6.90;;
8626;SDS011;4351;51.422;6.794;2023-04-08T12:59:52;8.77;;;6.13;;
8626;SDS011;4351;51.422;6.794;2023-04-08T13:02:20;7.40;;;6.20;;
8626;SDS011;4351;51.422;6.794;2023-04-08T13:04:48;10.37;;;6.43;;
8626;SDS011;4351;51.422;6.794;2023-04-08T13:07:17;9.50;;;5.83;;
8626;SDS011;4351;51.422;6.794;2023-04-08T13:09:45;10.07;;;6.93;;
8626;SDS011;4351;51.422;6.794;2023-04-08T13:12:14;9.10;;;7.37;;
8626;SDS011;4351;51.422;6.794;2023-04-08T13:14:42;9.03;;;6.87;;
8626;SDS011;4351;51.422;6.794;2023-04-08T13:17:10;8.73;;;7.50;;
8626;SDS011;4351;51.422;6.794;2023-04-08T13:19:37;8.73;;;7.10;;
8626;SDS011;4351;51.422;6.794;2023-04-08T13:22:05;14.17;;;8.20;;
8626;SDS011;4351;51.422;6.794;2023-04-08T13:24:33;12.93;;;9.00;;
8626;SDS011;4351;51.422;6.794;2023-04-08T13:27:01;11.00;;;9.47;;
8626;SDS011;4351;51.422;6.794;2023-04-08T13:29:30;9.23;;;8.20;;
8626;SDS011;4351;51.422;6.794;2023-04-08T13:31:58;10.60;;;8.10;;
8626;SDS011;4351;51.422;6.794;2023-04-08T13:34:27;9.40;;;8.17;;
8626;SDS011;4351;51.422;6.794;2023-04-08T13:36:54;8.77;;;7.73;;
8626;SDS011;4351;51.422;6.794;2023-04-08T13:39:22;12.07;;;8.23;;
8626;SDS011;4351;51.422;6.794;2023-04-08T13:41:50;10.30;;;9.10;;
8626;SDS011;4351;51.422;6.794;2023-04-08T13:44:18;11.93;;;9.57;;
8626;SDS011;4351;51.422;6.794;2023-04-08T13:46:48;12.23;;;9.80;;
8626;SDS011;4351;51.422;6.794;2023-04-08T13:49:16;15.07;;;10.60;;
8626;SDS011;4351;51.422;6.794;2023-04-08T13:51:44;14.43;;;11.97;;
8626;SDS011;4351;51.422;6.794;2023-04-08T13:54:12;14.37;;;12.07;;
8626;SDS011;4351;51.422;6.794;2023-04-08T13:56:40;14.00;;;12.30;;
8626;SDS011;4351;51.422;6.794;2023-04-08T13:59:08;14.07;;;12.67;;
8626;SDS011;4351;51.422;6.794;2023-04-08T14:01:36;16.97;;;13.77;;
8626;SDS011;4351;51.422;6.794;2023-04-08T14:04:07;16.27;;;13.80;;
8626;SDS011;4351;51.422;6.794;2023-04-08T14:06:35;15.27;;;13.27;;
8626;SDS011;4351;51.422;6.794;2023-04-08T14:09:03;15.30;;;13.70;;
8626;SDS011;4351;51.422;6.794;2023-04-08T14:11:32;17.37;;;13.80;;
8626;SDS011;4351;51.422;6.794;2023-04-08T14:14:03;18.53;;;14.17;;
8626;SDS011;4351;51.422;6.794;2023-04-08T14:16:31;16.03;;;14.33;;
8626;SDS011;4351;51.422;6.794;2023-04-08T14:19:01;16.17;;;12.87;;
8626;SDS011;4351;51.422;6.794;2023-04-08T14:21:30;19.53;;;14.43;;
8626;SDS011;4351;51.422;6.794;2023-04-08T14:23:58;16.10;;;13.10;;
8626;SDS011;4351;51.422;6.794;2023-04-08T14:26:28;15.73;;;12.07;;
8626;SDS011;4351;51.422;6.794;2023-04-08T14:28:58;16.10;;;13.30;;
8626;SDS011;4351;51.422;6.794;2023-04-08T14:31:26;15.63;;;13.13;;
8626;SDS011;4351;51.422;6.794;2023-04-08T14:33:54;16.13;;;13.63;;
8626;SDS011;4351;51.422;6.794;2023-04-08T14:36:22;14.07;;;12.57;;
8626;SDS011;4351;51.422;6.794;2023-04-08T14:38:52;16.47;;;13.70;;
8626;SDS011;4351;51.422;6.794;2023-04-08T14:41:20;15.50;;;13.43;;
8626;SDS011;4351;51.422;6.794;2023-04-08T14:43:51;14.63;;;13.13;;
8626;SDS011;4351;51.422;6.794;2023-04-08T14:46:19;15.97;;;14.00;;
8626;SDS011;4351;51.422;6.794;2023-04-08T14:48:47;16.77;;;14.60;;
8626;SDS011;4351;51.422;6.794;2023-04-08T14:51:15;15.53;;;13.77;;
8626;SDS011;4351;51.422;6.794;2023-04-08T14:53:43;16.10;;;13.13;;
8626;SDS011;4351;51.422;6.794;2023-04-08T14:56:13;17.03;;;13.87;;
8626;SDS011;4351;51.422;6.794;2023-04-08T14:58:41;14.80;;;13.23;;
8626;SDS011;4351;51.422;6.794;2023-04-08T15:01:09;14.17;;;12.67;;
8626;SDS011;4351;51.422;6.794;2023-04-08T15:03:37;15.90;;;14.03;;
8626;SDS011;4351;51.422;6.794;2023-04-08T15:06:05;17.60;;;13.70;;
8626;SDS011;4351;51.422;6.794;2023-04-08T15:08:32;19.07;;;15.40;;